Mineola, Missouri
Current Conditions -  °F | °C
As of 3:35 PM on Thursday 27 Nov 2014 (Local Time) from KFYG Reporting Station
Few Clouds Few Clouds  
Wind Chill:   Ceiling: Unl
Heat Index:   Visibility: 10mi
Dew Point: -6°   Wind: 7mph
Humidity: 52%   Direction: 290°WNW
Pressure: 30.44"   Gusts: NA
Location:  39.0022°N, 91.5066°W
Report Text: KFYG 272135Z AUTO 29006KT 10SM FEW040 03/M06 A3044 RMK AO2
Loading
Personal Weather Stations






























Interactive Weather Map New forecast layout! Learn more

10-Day Weather Forecast

Advertisements
Track Severe Weather on mobile